createdAt,value
2023-02-15T00:00:28.463Z,101622.91
2023-02-15T00:01:15.529Z,101627.09
2023-02-15T00:02:02.711Z,101625.94
2023-02-15T00:02:49.819Z,101625.44
2023-02-15T00:03:36.998Z,101626.22
2023-02-15T00:04:25.795Z,101628.59
2023-02-15T00:05:12.773Z,101622.78
2023-02-15T00:05:59.999Z,101627.16
2023-02-15T00:06:47.331Z,101624.94
2023-02-15T00:07:34.364Z,101625.41
2023-02-15T00:08:21.405Z,101624.31
2023-02-15T00:09:09.881Z,101621.59
2023-02-15T00:09:56.882Z,101620.59
2023-02-15T00:10:43.880Z,101621.25
2023-02-15T00:12:06.666Z,101628.12
2023-02-15T00:12:53.576Z,101617.66
2023-02-15T00:13:43.539Z,101626.06
2023-02-15T00:14:30.678Z,101618.62
2023-02-15T00:15:17.760Z,101620.16
2023-02-15T00:16:05.908Z,101625.56
2023-02-15T00:16:55.395Z,101616.22
2023-02-15T00:17:42.485Z,101623.72
2023-02-15T00:18:29.670Z,101629.53
2023-02-15T00:19:18.644Z,101625.91
2023-02-15T00:20:06.274Z,101624.25
2023-02-15T00:20:53.205Z,101627.03
2023-02-15T00:21:40.809Z,101620.09
2023-02-15T00:22:27.762Z,101625.94
2023-02-15T00:23:14.755Z,101622.91
2023-02-15T00:24:03.319Z,101620.94
2023-02-15T00:24:51.288Z,101622.00
2023-02-15T00:25:38.215Z,101622.28
2023-02-15T00:26:25.555Z,101629.41
2023-02-15T00:27:12.562Z,101622.75
2023-02-15T00:28:01.457Z,101621.41
2023-02-15T00:28:48.484Z,101622.91
2023-02-15T00:29:35.570Z,101625.44
2023-02-15T00:30:22.629Z,101623.69
2023-02-15T00:31:11.536Z,101627.25
2023-02-15T00:31:58.606Z,101627.22
2023-02-15T00:32:45.571Z,101622.84
2023-02-15T00:33:32.828Z,101624.09
2023-02-15T00:34:22.639Z,101627.59
2023-02-15T00:35:10.523Z,101623.28
2023-02-15T00:35:59.349Z,101622.28
2023-02-15T00:36:47.903Z,101620.97
2023-02-15T00:37:34.929Z,101626.09
2023-02-15T00:38:24.682Z,101622.41
2023-02-15T00:39:12.372Z,101619.63
2023-02-15T00:39:59.435Z,101625.38
2023-02-15T00:40:53.764Z,101624.72
2023-02-15T00:41:41.072Z,101624.56
2023-02-15T00:42:27.972Z,101627.38
2023-02-15T00:43:15.012Z,101624.66
2023-02-15T00:44:02.123Z,101626.37
2023-02-15T00:44:49.075Z,101631.38
2023-02-15T00:45:39.739Z,101618.84
2023-02-15T00:46:26.892Z,101626.25
2023-02-15T00:47:13.931Z,101618.19
2023-02-15T00:48:00.869Z,101623.56
2023-02-15T00:48:47.817Z,101616.66
2023-02-15T00:49:37.769Z,101619.00
2023-02-15T00:50:24.787Z,101623.13
2023-02-15T00:51:11.793Z,101620.75
2023-02-15T00:51:58.801Z,101622.38
2023-02-15T00:52:45.760Z,101615.28
2023-02-15T00:53:32.718Z,101612.41
2023-02-15T00:54:20.039Z,101624.47
2023-02-15T00:55:07.529Z,101614.78
2023-02-15T00:55:55.194Z,101615.69
2023-02-15T00:56:42.123Z,101620.63
2023-02-15T00:57:29.124Z,101619.44
2023-02-15T00:58:16.816Z,101620.31
2023-02-15T00:59:03.965Z,101613.78
2023-02-15T00:59:51.088Z,101614.34
2023-02-15T01:00:39.004Z,101617.81
2023-02-15T01:01:27.138Z,101616.13
2023-02-15T01:02:14.276Z,101617.81
2023-02-15T01:03:01.328Z,101614.03
2023-02-15T01:03:48.353Z,101616.28
2023-02-15T01:04:35.467Z,101612.09
2023-02-15T01:05:22.445Z,101616.22
2023-02-15T01:06:09.920Z,101621.41
2023-02-15T01:06:56.884Z,101618.84
2023-02-15T01:07:43.882Z,101619.03
2023-02-15T01:08:31.043Z,101608.00
2023-02-15T01:09:18.006Z,101614.19
2023-02-15T01:10:07.125Z,101611.28
2023-02-15T01:10:54.566Z,101614.66
2023-02-15T01:11:41.535Z,101607.13
2023-02-15T01:12:28.608Z,101614.00
2023-02-15T01:13:17.793Z,101613.91
2023-02-15T01:14:06.597Z,101603.56
2023-02-15T01:14:53.507Z,101610.19
2023-02-15T01:15:42.444Z,101607.50
2023-02-15T01:16:30.896Z,101606.41
2023-02-15T01:17:17.957Z,101608.16
2023-02-15T01:18:04.961Z,101601.00
2023-02-15T01:18:52.233Z,101600.84
2023-02-15T01:19:39.211Z,101602.75
2023-02-15T01:20:28.364Z,101601.88
2023-02-15T01:21:17.938Z,101603.66
2023-02-15T01:22:05.196Z,101597.19
2023-02-15T01:22:53.045Z,101604.78
2023-02-15T01:23:40.096Z,101603.31
2023-02-15T01:24:27.080Z,101603.09
2023-02-15T01:25:14.671Z,101598.06
2023-02-15T01:26:04.970Z,101602.75
2023-02-15T01:26:51.953Z,101598.12
2023-02-15T01:27:38.950Z,101599.69
2023-02-15T01:28:28.781Z,101594.94
2023-02-15T01:29:15.764Z,101602.47
2023-02-15T01:30:03.033Z,101599.75
2023-02-15T01:30:50.084Z,101596.41
2023-02-15T01:31:37.233Z,101597.59
2023-02-15T01:32:24.756Z,101596.63
2023-02-15T01:33:19.106Z,101591.31
2023-02-15T01:34:06.178Z,101591.47
2023-02-15T01:34:53.182Z,101589.44
2023-02-15T01:35:40.201Z,101587.34
2023-02-15T01:36:27.250Z,101583.00
2023-02-15T01:37:14.246Z,101591.19
2023-02-15T01:38:01.262Z,101584.22
2023-02-15T01:38:48.262Z,101580.06
2023-02-15T01:39:35.239Z,101577.09
2023-02-15T01:40:22.437Z,101581.63
2023-02-15T01:41:23.484Z,101582.25
2023-02-15T01:42:13.619Z,101589.87
2023-02-15T01:43:00.582Z,101582.72
2023-02-15T01:43:49.927Z,101583.25
2023-02-15T01:45:00.405Z,101589.16
2023-02-15T01:45:49.442Z,101580.28
2023-02-15T01:46:46.700Z,101575.91
2023-02-15T01:47:40.792Z,101580.81
2023-02-15T01:48:29.134Z,101574.66
2023-02-15T01:49:19.164Z,101577.69
2023-02-15T01:50:18.519Z,101576.16
2023-02-15T01:51:05.447Z,101582.97
2023-02-15T01:51:54.052Z,101569.13
2023-02-15T01:53:05.091Z,101568.47
2023-02-15T01:54:03.056Z,101569.75
2023-02-15T01:54:50.326Z,101568.44
2023-02-15T01:55:49.685Z,101567.22
2023-02-15T01:56:37.958Z,101568.09
2023-02-15T01:57:27.039Z,101567.41
2023-02-15T01:58:15.323Z,101561.88
2023-02-15T01:59:07.819Z,101558.16
2023-02-15T01:59:58.446Z,101561.16
2023-02-15T02:00:45.208Z,101560.84
2023-02-15T02:01:32.258Z,101564.28
2023-02-15T02:02:22.048Z,101559.81
2023-02-15T02:03:09.098Z,101561.78
2023-02-15T02:04:14.205Z,101551.28
2023-02-15T02:05:07.658Z,101556.03
2023-02-15T02:05:54.622Z,101560.97
2023-02-15T02:06:41.629Z,101551.94
2023-02-15T02:07:29.896Z,101561.50
2023-02-15T02:08:16.891Z,101563.03
2023-02-15T02:09:04.046Z,101562.34
2023-02-15T02:09:51.362Z,101559.81
2023-02-15T02:10:38.275Z,101563.78
2023-02-15T02:11:25.812Z,101564.00
2023-02-15T02:12:13.214Z,101555.44
2023-02-15T02:13:02.926Z,101562.00
2023-02-15T02:13:50.602Z,101561.63
2023-02-15T02:14:38.824Z,101560.38
2023-02-15T02:15:35.267Z,101563.69
2023-02-15T02:16:34.166Z,101551.16
2023-02-15T02:17:41.033Z,101552.16
2023-02-15T02:19:11.412Z,101547.72
2023-02-15T02:20:22.028Z,101548.63
2023-02-15T02:21:39.508Z,101558.09
2023-02-15T02:22:47.292Z,101548.81
2023-02-15T02:23:42.380Z,101552.06
2023-02-15T02:24:42.764Z,101555.13
2023-02-15T02:25:52.911Z,101552.37
2023-02-15T02:26:58.829Z,101546.22
2023-02-15T02:28:06.363Z,101557.09
2023-02-15T02:29:11.495Z,101557.09
2023-02-15T02:30:26.344Z,101560.62
2023-02-15T02:31:24.057Z,101559.66
2023-02-15T02:32:27.992Z,101552.06
2023-02-15T02:33:36.275Z,101559.53
2023-02-15T02:35:01.322Z,101563.59
2023-02-15T02:35:56.996Z,101558.69
2023-02-15T02:36:51.235Z,101554.69
2023-02-15T02:38:00.369Z,101562.00
2023-02-15T02:39:12.011Z,101560.78
2023-02-15T02:40:01.971Z,101553.13
2023-02-15T02:41:19.929Z,101553.72
2023-02-15T02:42:32.168Z,101557.97
2023-02-15T02:43:36.085Z,101556.72
2023-02-15T02:44:45.405Z,101559.16
2023-02-15T02:45:45.870Z,101561.53
2023-02-15T02:47:04.725Z,101559.69
2023-02-15T02:48:01.884Z,101564.16
2023-02-15T02:48:50.450Z,101560.53
2023-02-15T02:49:40.223Z,101562.81
2023-02-15T02:50:30.365Z,101559.41
2023-02-15T02:51:22.599Z,101557.66
2023-02-15T02:52:41.525Z,101552.28
2023-02-15T02:53:30.708Z,101552.34
2023-02-15T02:54:17.679Z,101565.09
2023-02-15T02:55:39.163Z,101554.44
2023-02-15T02:56:39.250Z,101555.50
2023-02-15T02:57:30.202Z,101555.41
2023-02-15T02:58:33.197Z,101555.44
2023-02-15T02:59:34.848Z,101550.31
2023-02-15T03:00:23.429Z,101549.09
2023-02-15T03:01:36.871Z,101553.09
2023-02-15T03:02:29.175Z,101542.84
2023-02-15T03:03:22.437Z,101550.47
2023-02-15T03:04:13.962Z,101555.56
2023-02-15T03:05:04.981Z,101550.41
2023-02-15T03:05:55.496Z,101554.44
2023-02-15T03:06:48.688Z,101548.94
2023-02-15T03:07:37.953Z,101546.28
2023-02-15T03:08:29.248Z,101547.78
2023-02-15T03:09:35.717Z,101540.69
2023-02-15T03:10:26.060Z,101552.91
2023-02-15T03:11:13.661Z,101549.28
2023-02-15T03:12:00.710Z,101538.78
2023-02-15T03:12:48.355Z,101542.84
2023-02-15T03:13:35.970Z,101549.00
2023-02-15T03:14:22.969Z,101548.53
2023-02-15T03:15:17.743Z,101544.34
2023-02-15T03:16:24.418Z,101547.34
2023-02-15T03:17:13.415Z,101550.88
2023-02-15T03:18:04.010Z,101542.84
2023-02-15T03:18:59.141Z,101551.31
2023-02-15T03:19:47.336Z,101544.47
2023-02-15T03:20:38.000Z,101546.00
2023-02-15T03:22:05.005Z,101548.41
2023-02-15T03:23:16.161Z,101549.34
2023-02-15T03:24:11.182Z,101542.37
2023-02-15T03:25:12.560Z,101552.09
2023-02-15T03:26:07.455Z,101551.13
2023-02-15T03:26:55.222Z,101541.09
2023-02-15T03:28:11.256Z,101546.41
2023-02-15T03:29:00.118Z,101545.28
2023-02-15T03:29:50.069Z,101551.94
2023-02-15T03:30:39.407Z,101548.28
2023-02-15T03:31:28.378Z,101542.22
2023-02-15T03:32:16.067Z,101547.66
2023-02-15T03:33:08.821Z,101554.12
2023-02-15T03:33:59.540Z,101551.00
2023-02-15T03:34:46.982Z,101545.41
2023-02-15T03:35:51.935Z,101549.44
2023-02-15T03:36:52.163Z,101543.41
2023-02-15T03:38:05.158Z,101546.72
2023-02-15T03:39:19.119Z,101544.19
2023-02-15T03:40:41.699Z,101542.56
2023-02-15T03:41:34.636Z,101542.22
2023-02-15T03:42:30.091Z,101543.06
2023-02-15T03:43:33.900Z,101539.69
2023-02-15T03:44:27.338Z,101541.25
2023-02-15T03:45:17.762Z,101538.53
2023-02-15T03:46:39.390Z,101544.63
2023-02-15T03:47:32.781Z,101544.78
2023-02-15T03:48:20.365Z,101538.47
2023-02-15T03:49:25.637Z,101531.63
2023-02-15T03:50:40.047Z,101539.97
2023-02-15T03:51:43.053Z,101544.66
2023-02-15T03:52:31.234Z,101549.28
2023-02-15T03:53:22.008Z,101547.00
2023-02-15T03:54:35.931Z,101546.66
2023-02-15T03:55:23.493Z,101535.69
2023-02-15T03:56:10.512Z,101535.50
2023-02-15T03:57:18.696Z,101536.31
2023-02-15T03:58:23.983Z,101538.56
2023-02-15T03:59:29.372Z,101536.56
2023-02-15T04:00:55.935Z,101530.66
2023-02-15T04:02:00.792Z,101530.69
2023-02-15T04:02:58.205Z,101533.78
2023-02-15T04:04:01.598Z,101530.78
2023-02-15T04:04:49.129Z,101532.59
2023-02-15T04:05:36.608Z,101532.66
2023-02-15T04:06:23.608Z,101527.25
2023-02-15T04:07:10.940Z,101534.34
2023-02-15T04:07:57.936Z,101531.97
2023-02-15T04:09:03.688Z,101529.47
2023-02-15T04:10:09.308Z,101533.03
2023-02-15T04:10:57.407Z,101528.37
2023-02-15T04:11:44.512Z,101527.44
2023-02-15T04:12:32.285Z,101527.50
2023-02-15T04:13:31.031Z,101537.25
2023-02-15T04:14:36.389Z,101533.47
2023-02-15T04:15:42.051Z,101534.47
2023-02-15T04:16:31.264Z,101533.81
2023-02-15T04:17:18.551Z,101531.22
2023-02-15T04:18:05.767Z,101534.75
2023-02-15T04:19:11.108Z,101527.69
2023-02-15T04:20:19.604Z,101537.94
2023-02-15T04:21:26.173Z,101529.19
2023-02-15T04:22:32.122Z,101528.06
2023-02-15T04:23:37.854Z,101531.09
2023-02-15T04:24:43.411Z,101529.66
2023-02-15T04:25:30.596Z,101530.66
2023-02-15T04:26:18.258Z,101536.62
2023-02-15T04:27:07.801Z,101536.50
2023-02-15T04:27:56.169Z,101539.28
2023-02-15T04:28:43.276Z,101539.00
2023-02-15T04:29:33.606Z,101541.63
2023-02-15T04:30:25.748Z,101541.50
2023-02-15T04:31:12.867Z,101537.41
2023-02-15T04:32:01.516Z,101540.56
2023-02-15T04:32:48.653Z,101540.28
2023-02-15T04:33:37.044Z,101542.03
2023-02-15T04:34:24.321Z,101543.47
2023-02-15T04:35:12.412Z,101546.81
2023-02-15T04:35:59.597Z,101538.13
2023-02-15T04:36:46.894Z,101545.09
2023-02-15T04:37:34.364Z,101545.00
2023-02-15T04:38:21.357Z,101542.88
2023-02-15T04:39:08.750Z,101540.03
2023-02-15T04:39:55.780Z,101547.38
2023-02-15T04:40:42.840Z,101545.81
2023-02-15T04:41:30.845Z,101549.41
2023-02-15T04:42:17.913Z,101553.59
2023-02-15T04:43:04.867Z,101546.47
2023-02-15T04:43:51.878Z,101546.31
2023-02-15T04:44:38.785Z,101542.53
2023-02-15T04:45:25.834Z,101543.19
2023-02-15T04:46:14.265Z,101553.91
2023-02-15T04:47:01.243Z,101550.44
2023-02-15T04:47:48.228Z,101553.06
2023-02-15T04:48:35.201Z,101550.44
2023-02-15T04:49:22.112Z,101548.59
2023-02-15T04:50:09.356Z,101549.50
2023-02-15T04:50:56.289Z,101547.75
2023-02-15T04:51:43.244Z,101549.94
2023-02-15T04:52:30.220Z,101553.53
2023-02-15T04:53:18.993Z,101556.16
2023-02-15T04:54:06.024Z,101557.88
2023-02-15T04:54:52.993Z,101560.09
2023-02-15T04:55:39.991Z,101557.16
2023-02-15T04:56:26.962Z,101556.19
2023-02-15T04:57:14.363Z,101550.69
2023-02-15T04:58:01.341Z,101553.25
2023-02-15T04:58:48.576Z,101551.56
2023-02-15T04:59:35.600Z,101556.88
2023-02-15T05:00:22.646Z,101552.56
2023-02-15T05:01:10.149Z,101556.19
2023-02-15T05:01:57.040Z,101560.91
2023-02-15T05:02:46.474Z,101556.22
2023-02-15T05:03:33.707Z,101556.25
2023-02-15T05:04:20.745Z,101556.31
2023-02-15T05:05:08.479Z,101559.78
2023-02-15T05:05:55.467Z,101554.25
2023-02-15T05:06:42.427Z,101553.25
2023-02-15T05:07:29.819Z,101555.03
2023-02-15T05:08:16.880Z,101552.09
2023-02-15T05:09:04.202Z,101548.53
2023-02-15T05:09:51.294Z,101553.25
2023-02-15T05:10:38.282Z,101548.84
2023-02-15T05:11:25.260Z,101553.28
2023-02-15T05:12:12.407Z,101543.25
2023-02-15T05:12:59.366Z,101553.53
2023-02-15T05:13:46.490Z,101545.41
2023-02-15T05:14:33.516Z,101548.13
2023-02-15T05:15:20.464Z,101551.44
2023-02-15T05:16:07.844Z,101550.75
2023-02-15T05:16:56.325Z,101549.81
2023-02-15T05:17:43.387Z,101548.28
2023-02-15T05:18:30.511Z,101558.81
2023-02-15T05:19:17.496Z,101551.28
2023-02-15T05:20:05.116Z,101541.87
2023-02-15T05:20:52.088Z,101552.41
2023-02-15T05:21:38.999Z,101547.59
2023-02-15T05:22:25.961Z,101545.63
2023-02-15T05:23:13.135Z,101550.62
2023-02-15T05:24:00.094Z,101555.97
2023-02-15T05:25:05.514Z,101553.62
2023-02-15T05:26:11.566Z,101553.00
2023-02-15T05:27:17.175Z,101557.81
2023-02-15T05:28:22.691Z,101551.97
2023-02-15T05:29:10.349Z,101557.75
2023-02-15T05:29:57.631Z,101553.03
2023-02-15T05:30:44.827Z,101550.94
2023-02-15T05:31:32.680Z,101560.47
2023-02-15T05:32:19.863Z,101556.50
2023-02-15T05:33:08.039Z,101542.34
2023-02-15T05:33:54.976Z,101553.75
2023-02-15T05:34:44.117Z,101553.38
2023-02-15T05:35:31.035Z,101549.56
2023-02-15T05:36:17.968Z,101558.81
2023-02-15T05:37:05.029Z,101548.34
2023-02-15T05:37:52.024Z,101549.00
2023-02-15T05:38:39.416Z,101556.53
2023-02-15T05:39:26.317Z,101556.34
2023-02-15T05:40:13.449Z,101559.06
2023-02-15T05:41:00.858Z,101558.00
2023-02-15T05:41:48.114Z,101561.72
2023-02-15T05:42:35.141Z,101555.59
2023-02-15T05:43:22.437Z,101564.44
2023-02-15T05:44:09.342Z,101558.91
2023-02-15T05:44:56.227Z,101557.19
2023-02-15T05:45:47.001Z,101558.56
2023-02-15T05:46:34.025Z,101561.84
2023-02-15T05:47:20.976Z,101560.78
2023-02-15T05:48:07.936Z,101552.00
2023-02-15T05:48:54.882Z,101563.50
2023-02-15T05:49:41.852Z,101563.34
2023-02-15T05:50:28.827Z,101560.78
2023-02-15T05:51:17.135Z,101564.69
2023-02-15T05:52:04.811Z,101570.62
2023-02-15T05:52:52.563Z,101572.22
2023-02-15T05:53:40.291Z,101572.00
2023-02-15T05:54:27.291Z,101570.25
2023-02-15T05:55:14.274Z,101575.13
2023-02-15T05:56:02.134Z,101571.12
2023-02-15T05:56:49.298Z,101570.38
2023-02-15T05:57:37.081Z,101573.97
2023-02-15T05:58:24.036Z,101569.63
2023-02-15T05:59:10.995Z,101571.63
2023-02-15T05:59:58.078Z,101573.88
2023-02-15T06:00:45.043Z,101576.59
2023-02-15T06:01:31.962Z,101575.75
2023-02-15T06:02:19.092Z,101569.37
2023-02-15T06:03:06.107Z,101573.84
2023-02-15T06:03:53.582Z,101583.81
2023-02-15T06:04:40.705Z,101569.56
2023-02-15T06:05:27.749Z,101568.34
2023-02-15T06:06:14.706Z,101573.38
2023-02-15T06:07:01.704Z,101577.75
2023-02-15T06:07:48.622Z,101574.81
2023-02-15T06:08:36.794Z,101576.59
2023-02-15T06:09:23.844Z,101577.09
2023-02-15T06:10:10.895Z,101585.00
2023-02-15T06:10:57.813Z,101582.19
2023-02-15T06:11:44.883Z,101579.66
2023-02-15T06:12:32.491Z,101584.22
2023-02-15T06:13:19.494Z,101585.00
2023-02-15T06:14:06.502Z,101585.06
2023-02-15T06:14:53.485Z,101575.16
2023-02-15T06:15:40.407Z,101576.53
2023-02-15T06:16:27.400Z,101577.34
2023-02-15T06:17:14.317Z,101578.53
2023-02-15T06:18:01.271Z,101573.13
2023-02-15T06:18:48.288Z,101579.63
2023-02-15T06:19:35.252Z,101578.34
2023-02-15T06:20:22.501Z,101578.75
2023-02-15T06:21:09.487Z,101576.72
2023-02-15T06:21:56.382Z,101570.38
2023-02-15T06:22:43.566Z,101575.31
2023-02-15T06:23:30.606Z,101579.44
2023-02-15T06:24:17.721Z,101575.75
2023-02-15T06:25:04.919Z,101568.66
2023-02-15T06:25:51.988Z,101576.03
2023-02-15T06:26:38.894Z,101571.25
2023-02-15T06:27:25.819Z,101575.34
2023-02-15T06:28:12.761Z,101578.66
2023-02-15T06:28:59.668Z,101580.47
2023-02-15T06:29:46.688Z,101574.12
2023-02-15T06:30:33.635Z,101575.75
2023-02-15T06:31:23.748Z,101576.94
2023-02-15T06:32:10.824Z,101573.56
2023-02-15T06:32:57.806Z,101574.75
2023-02-15T06:33:44.808Z,101571.00
2023-02-15T06:34:32.088Z,101578.91
2023-02-15T06:35:19.043Z,101575.84
2023-02-15T06:36:06.230Z,101574.97
2023-02-15T06:36:53.117Z,101577.06
2023-02-15T06:37:40.526Z,101568.87
2023-02-15T06:38:27.684Z,101572.28
2023-02-15T06:39:15.023Z,101573.75
2023-02-15T06:40:03.826Z,101575.81
2023-02-15T06:40:50.962Z,101579.09
2023-02-15T06:41:37.990Z,101583.31
2023-02-15T06:42:25.833Z,101580.62
2023-02-15T06:43:12.761Z,101576.72
2023-02-15T06:43:59.864Z,101580.75
2023-02-15T06:44:47.104Z,101577.03
2023-02-15T06:45:34.058Z,101569.56
2023-02-15T06:46:21.312Z,101573.63
2023-02-15T06:47:08.543Z,101573.63
2023-02-15T06:47:55.410Z,101571.12
2023-02-15T06:48:42.601Z,101577.31
2023-02-15T06:49:30.673Z,101572.69
2023-02-15T06:50:17.629Z,101576.03
2023-02-15T06:51:05.111Z,101582.00
2023-02-15T06:51:52.096Z,101573.25
2023-02-15T06:52:39.002Z,101575.81
2023-02-15T06:53:26.145Z,101572.44
2023-02-15T06:54:13.088Z,101572.97
2023-02-15T06:55:00.012Z,101574.34
2023-02-15T06:55:46.965Z,101581.34
2023-02-15T06:56:33.992Z,101569.97
2023-02-15T06:57:23.008Z,101571.97
2023-02-15T06:58:10.261Z,101572.78
2023-02-15T06:58:57.391Z,101574.44
2023-02-15T06:59:44.410Z,101570.69
2023-02-15T07:00:31.434Z,101564.22
2023-02-15T07:01:20.552Z,101568.38
2023-02-15T07:02:07.610Z,101571.19
2023-02-15T07:02:58.996Z,101575.03
2023-02-15T07:03:46.174Z,101568.56
2023-02-15T07:04:33.245Z,101565.87
2023-02-15T07:05:20.174Z,101569.19
2023-02-15T07:06:09.516Z,101568.66
2023-02-15T07:06:56.573Z,101571.00
2023-02-15T07:07:43.638Z,101572.41
2023-02-15T07:08:31.027Z,101568.91
2023-02-15T07:09:17.916Z,101567.06
2023-02-15T07:10:05.461Z,101577.69
2023-02-15T07:10:53.439Z,101570.44
2023-02-15T07:11:59.152Z,101575.50
2023-02-15T07:12:46.886Z,101582.34
2023-02-15T07:13:33.872Z,101578.72
2023-02-15T07:14:20.996Z,101575.91
2023-02-15T07:15:10.318Z,101574.06
2023-02-15T07:15:57.480Z,101572.44
2023-02-15T07:16:44.482Z,101573.66
2023-02-15T07:17:36.435Z,101580.47
2023-02-15T07:18:23.667Z,101578.50
2023-02-15T07:19:10.687Z,101572.97
2023-02-15T07:19:57.634Z,101572.72
2023-02-15T07:20:44.603Z,101573.59
2023-02-15T07:21:31.549Z,101565.47
2023-02-15T07:22:18.439Z,101573.16
2023-02-15T07:23:06.032Z,101578.03
2023-02-15T07:23:52.947Z,101573.47
2023-02-15T07:24:39.995Z,101579.31
2023-02-15T07:25:26.934Z,101572.78
2023-02-15T07:26:13.835Z,101577.03
2023-02-15T07:27:01.186Z,101577.59
2023-02-15T07:27:48.181Z,101573.88
2023-02-15T07:28:35.936Z,101570.22
2023-02-15T07:29:24.318Z,101575.22
2023-02-15T07:30:13.669Z,101569.00
2023-02-15T07:31:03.619Z,101571.44
2023-02-15T07:31:50.837Z,101566.16
2023-02-15T07:32:38.190Z,101573.72
2023-02-15T07:33:25.451Z,101565.84
2023-02-15T07:34:12.591Z,101568.28
2023-02-15T07:35:01.120Z,101562.59
2023-02-15T07:35:52.660Z,101565.19
2023-02-15T07:36:39.583Z,101561.91
2023-02-15T07:37:27.035Z,101560.59
2023-02-15T07:38:13.960Z,101561.75
2023-02-15T07:39:00.903Z,101563.75
2023-02-15T07:39:47.855Z,101557.06
2023-02-15T07:40:34.756Z,101563.69
2023-02-15T07:41:21.718Z,101564.34
2023-02-15T07:42:08.649Z,101552.28
2023-02-15T07:43:00.354Z,101552.06
2023-02-15T07:43:47.475Z,101553.09
2023-02-15T07:44:34.427Z,101545.50
2023-02-15T07:45:21.918Z,101545.91
2023-02-15T07:46:12.785Z,101546.41
2023-02-15T07:46:59.737Z,101548.63
2023-02-15T07:47:46.688Z,101555.28
2023-02-15T07:48:35.602Z,101545.00
2023-02-15T07:49:22.669Z,101543.62
2023-02-15T07:50:09.904Z,101542.94
2023-02-15T07:51:00.441Z,101545.97
2023-02-15T07:51:47.477Z,101546.34
2023-02-15T07:52:34.385Z,101533.84
2023-02-15T07:53:21.303Z,101538.47
2023-02-15T07:54:08.332Z,101533.41
2023-02-15T07:54:55.577Z,101542.53
2023-02-15T07:55:42.586Z,101532.13
2023-02-15T07:56:29.548Z,101529.00
2023-02-15T07:57:16.499Z,101525.94
2023-02-15T07:58:04.021Z,101524.06
2023-02-15T07:58:54.008Z,101527.00
2023-02-15T07:59:40.941Z,101525.66
2023-02-15T08:00:27.930Z,101520.72
2023-02-15T08:01:15.785Z,101524.22
2023-02-15T08:02:04.850Z,101516.03
2023-02-15T08:03:16.373Z,101520.19
2023-02-15T08:04:04.866Z,101513.03
2023-02-15T08:04:51.856Z,101523.84
2023-02-15T08:05:39.105Z,101517.28
2023-02-15T08:06:28.575Z,101519.69
2023-02-15T08:07:15.500Z,101520.97
2023-02-15T08:08:02.456Z,101522.34
2023-02-15T08:08:49.540Z,101519.75
2023-02-15T08:09:36.516Z,101512.53
2023-02-15T08:10:43.316Z,101522.66
2023-02-15T08:11:40.479Z,101513.84
2023-02-15T08:12:28.630Z,101516.75
2023-02-15T08:13:15.597Z,101512.44
2023-02-15T08:14:05.058Z,101507.87
2023-02-15T08:14:51.972Z,101518.97
2023-02-15T08:15:38.892Z,101515.69
2023-02-15T08:16:27.167Z,101510.84
2023-02-15T08:17:14.155Z,101509.53
2023-02-15T08:18:01.060Z,101513.66
2023-02-15T08:18:48.596Z,101507.00
2023-02-15T08:19:35.979Z,101510.34
2023-02-15T08:20:22.975Z,101517.16
2023-02-15T08:21:09.989Z,101515.00
2023-02-15T08:22:08.236Z,101513.84
2023-02-15T08:22:55.181Z,101517.91
2023-02-15T08:23:42.119Z,101509.25
2023-02-15T08:24:31.548Z,101512.69
2023-02-15T08:25:18.470Z,101507.06
2023-02-15T08:26:05.853Z,101512.97
2023-02-15T08:26:53.466Z,101510.97
2023-02-15T08:27:40.411Z,101499.25
2023-02-15T08:28:27.349Z,101499.84
2023-02-15T08:29:15.582Z,101504.69
2023-02-15T08:30:04.628Z,101500.97
2023-02-15T08:30:51.714Z,101508.72
2023-02-15T08:31:38.893Z,101505.66
2023-02-15T08:32:26.070Z,101507.19
2023-02-15T08:33:13.061Z,101504.97
2023-02-15T08:34:00.225Z,101503.06
2023-02-15T08:34:47.516Z,101497.47
2023-02-15T08:35:35.124Z,101504.22
2023-02-15T08:36:24.327Z,101503.84
2023-02-15T08:37:11.341Z,101500.69
2023-02-15T08:37:58.286Z,101507.16
2023-02-15T08:38:45.940Z,101514.34
2023-02-15T08:39:33.007Z,101510.34
2023-02-15T08:40:20.117Z,101513.25
2023-02-15T08:41:23.568Z,101506.59
2023-02-15T08:42:10.517Z,101507.78
2023-02-15T08:42:57.477Z,101517.19
2023-02-15T08:43:44.966Z,101503.44
2023-02-15T08:44:31.986Z,101510.84
2023-02-15T08:45:18.985Z,101508.94
2023-02-15T08:46:09.896Z,101508.66
2023-02-15T08:46:59.746Z,101503.00
2023-02-15T08:47:46.719Z,101505.78
2023-02-15T08:48:33.911Z,101514.66
2023-02-15T08:49:22.405Z,101506.84
2023-02-15T08:50:09.625Z,101512.75
2023-02-15T08:50:56.569Z,101513.06
2023-02-15T08:51:43.870Z,101513.06
2023-02-15T08:52:30.829Z,101513.19
2023-02-15T08:53:21.468Z,101508.56
2023-02-15T08:54:10.541Z,101512.00
2023-02-15T08:54:57.546Z,101510.06
2023-02-15T08:55:44.571Z,101517.06
2023-02-15T08:56:34.813Z,101514.50
2023-02-15T08:57:21.785Z,101519.00
2023-02-15T08:58:08.780Z,101512.97
2023-02-15T08:58:56.239Z,101505.34
2023-02-15T08:59:43.227Z,101509.62
2023-02-15T09:00:30.293Z,101512.09
2023-02-15T09:01:25.236Z,101519.50
2023-02-15T09:02:12.506Z,101516.59
2023-02-15T09:02:59.515Z,101518.50
2023-02-15T09:03:47.795Z,101509.50
2023-02-15T09:04:34.844Z,101513.03
2023-02-15T09:05:21.757Z,101517.22
2023-02-15T09:06:08.704Z,101514.09
2023-02-15T09:06:56.453Z,101516.75
2023-02-15T09:07:43.439Z,101516.28
2023-02-15T09:08:30.540Z,101518.13
2023-02-15T09:09:18.768Z,101519.84
2023-02-15T09:10:14.466Z,101511.50
2023-02-15T09:11:11.941Z,101509.72
2023-02-15T09:12:00.987Z,101513.47
2023-02-15T09:12:48.020Z,101508.34
2023-02-15T09:13:36.048Z,101513.47
2023-02-15T09:14:24.665Z,101514.75
2023-02-15T09:15:14.876Z,101511.94
2023-02-15T09:16:09.228Z,101511.75
2023-02-15T09:16:56.757Z,101508.75
2023-02-15T09:17:45.965Z,101505.56
2023-02-15T09:18:38.812Z,101511.94
2023-02-15T09:19:26.129Z,101508.97
2023-02-15T09:20:13.258Z,101509.94
2023-02-15T09:21:08.868Z,101515.63
2023-02-15T09:21:56.378Z,101512.50
2023-02-15T09:22:43.418Z,101517.75
2023-02-15T09:23:32.488Z,101512.22
2023-02-15T09:24:19.656Z,101515.97
2023-02-15T09:25:07.049Z,101515.22
2023-02-15T09:25:53.962Z,101522.25
2023-02-15T09:26:43.573Z,101511.97
2023-02-15T09:27:31.136Z,101520.16
2023-02-15T09:28:18.103Z,101523.78
2023-02-15T09:29:05.401Z,101520.47
2023-02-15T09:29:52.370Z,101523.38
2023-02-15T09:30:39.441Z,101517.59
2023-02-15T09:31:28.786Z,101508.47
2023-02-15T09:32:16.582Z,101516.41
2023-02-15T09:33:03.618Z,101509.22
2023-02-15T09:33:51.008Z,101511.06
2023-02-15T09:34:37.975Z,101509.31
2023-02-15T09:35:25.012Z,101503.19